San Pasqual Valley (470) Station Data

Red Flag Warning: No
Fire Weather Zone: 250
SDGE Region: North East
Lat/Lon: 33.093/-116.955

Observations

Time Wind Speed/Gust Temp(F) RH Fuel Moist Fuel Temp(F) Dewpt(F) Tmax(F) Tmin(F) Accum Precip 10-min Precip SL Press(mb)
4/26 2:40am 43 2 G 5 52° 81% - - 47° 56.4° 51.3° - - -
4/26 2:30am 55 3 G 7 52° 82% - - 47° 56.4° 51.3° - - -
4/26 2:20am 65 3 G 5 52° 83% - - 47° 56.4° 51.3° - - -
4/26 2:10am 83 4 G 5 52° 82% - - 47° 56.4° 51.4° - - -
4/26 2:00am 32 0 G 3 52° 81% - - 46° 56.4° 51.5° - - -
4/26 1:50am 38 1 G 5 53° 80% - - 47° 56.4° 51.6° - - -
4/26 1:40am 55 1 G 4 52° 81% - - 47° 56.4° 51.6° - - -
4/26 1:30am 55 2 G 3 52° 82% - - 47° 56.4° 51.6° - - -
4/26 1:20am 351 1 G 2 52° 80% - - 46° 56.4° 51.6° - - -
4/26 1:10am 102 1 G 2 53° 79% - - 47° 56.4° 52.6° - - -
4/26 1:00am 100 1 G 2 53° 79% - - 47° 56.4° 52.6° - - -
4/26 12:50am 342 1 G 2 53° 78% - - 47° 56.4° 52.6° - - -
4/26 12:40am 112 1 G 2 53° 78% - - 47° 56.4° 52.9° - - -
4/26 12:30am 290 1 G 3 54° 76% - - 47° 56.4° 53.5° - - -
4/26 12:20am 131 1 G 2 55° 74% - - 47° 56.4° 54.4° - - -
4/26 12:10am 57 2 G 4 56° 72% - - 47° 56.4° 55.2° - - -
4/26 12:00am 346 1 G 3 56° 72% - - 47° 70.8° 55.3° - - -
4/25 11:50pm 342 1 G 2 56° 71% - - 47° 70.8° 55.8° - - -
4/25 11:40pm 93 2 G 3 57° 69% - - 47° 70.8° 56.2° - - -
4/25 11:30pm 110 1 G 4 57° 68% - - 47° 70.8° 56.2° - - -
4/25 11:20pm 39 2 G 4 58° 66% - - 47° 70.8° 57.1° - - -
4/25 11:10pm 28 2 G 5 58° 66% - - 47° 70.8° 57.1° - - -
4/25 11:00pm 11 3 G 7 58° 65% - - 46° 70.8° 57.1° - - -
4/25 10:50pm 19 3 G 5 58° 64% - - 46° 70.8° 57.1° - - -
4/25 10:40pm 45 3 G 6 58° 66% - - 46° 70.8° 57.1° - - -
4/25 10:30pm 28 1 G 3 58° 65% - - 46° 70.8° 57.1° - - -
4/25 10:20pm 57 3 G 5 58° 65% - - 46° 70.8° 57.1° - - -
4/25 10:10pm 63 4 G 5 58° 66% - - 46° 70.8° 57.1° - - -
4/25 10:00pm 91 2 G 5 57° 68% - - 47° 70.8° 57.1° - - -
4/25 9:50pm 131 0 G 1 58° 66% - - 47° 70.8° 57.2° - - -
4/25 9:40pm 21 1 G 3 58° 65% - - 47° 70.8° 57.2° - - -
4/25 9:30pm 41 1 G 2 58° 67% - - 47° 70.8° 57.2° - - -
4/25 9:20pm 332 2 G 3 58° 64% - - 46° 70.8° 57.2° - - -
4/25 9:10pm 330 1 G 2 58° 66% - - 47° 70.8° 57.2° - - -
4/25 9:00pm 27 1 G 2 59° 67% - - 48° 70.8° 57.2° - - -
4/25 8:50pm 319 1 G 3 59° 65% - - 48° 70.8° 57.2° - - -
4/25 8:40pm 41 1 G 2 60° 65% - - 48° 70.8° 57.2° - - -
4/25 8:30pm 198 0 G 2 60° 65% - - 48° 70.8° 57.2° - - -
4/25 8:20pm 147 0 G 1 60° 63% - - 48° 70.8° 57.2° - - -
4/25 8:10pm 65 0 G 1 61° 62% - - 48° 70.8° 57.2° - - -
4/25 8:00pm 287 1 G 2 62° 61% - - 48° 70.8° 57.2° - - -
4/25 7:50pm 289 1 G 3 62° 60% - - 48° 70.8° 57.2° - - -
4/25 7:40pm 229 1 G 3 63° 58% - - 48° 70.8° 57.2° - - -
4/25 7:30pm 241 2 G 4 63° 57% - - 47° 70.8° 57.2° - - -
4/25 7:20pm 244 3 G 6 63° 56% - - 48° 70.8° 57.2° - - -
4/25 7:10pm 257 4 G 6 64° 57% - - 48° 70.8° 57.2° - - -
4/25 7:00pm 259 5 G 8 64° 55% - - 48° 70.8° 57.2° - - -
4/25 6:50pm 243 6 G 9 65° 56% - - 49° 70.8° 57.2° - - -
4/25 6:40pm 242 4 G 7 65° 55% - - 49° 70.8° 57.2° - - -
4/25 6:30pm 238 5 G 9 66° 54% - - 49° 70.8° 57.2° - - -
4/25 6:20pm 247 6 G 10 66° 54% - - 49° 70.8° 57.2° - - -
4/25 6:10pm 239 5 G 10 66° 56% - - 50° 70.8° 57.2° - - -
4/25 6:00pm 236 5 G 11 66° 55% - - 50° 70.8° 57.2° - - -
4/25 5:50pm 247 5 G 9 67° 54% - - 50° 70.8° 57.2° - - -
4/25 5:40pm 252 7 G 11 67° 54% - - 50° 70.8° 57.2° - - -
4/25 5:30pm 249 7 G 12 68° 53% - - 50° 70.8° 57.2° - - -
4/25 5:20pm 242 7 G 14 68° 52% - - 50° 70.8° 57.2° - - -
4/25 5:10pm 243 7 G 11 69° 51% - - 50° 70.8° 57.2° - - -
4/25 5:00pm 236 7 G 13 68° 53% - - 51° 70.8° 57.2° - - -
4/25 4:50pm 244 7 G 12 68° 54% - - 51° 70.8° 57.2° - - -
4/25 4:40pm 266 7 G 13 69° 53% - - 51° 70.8° 57.2° - - -
4/25 4:30pm 238 7 G 13 69° 53% - - 52° 70.8° 57.2° - - -
4/25 4:20pm 261 7 G 15 69° 53% - - 51° 70.8° 57.2° - - -
4/25 4:10pm 259 6 G 12 69° 53% - - 52° 70.8° 57.2° - - -
4/25 4:00pm 281 9 G 15 69° 53% - - 51° 70.8° 57.2° - - -
4/25 3:50pm 288 5 G 13 70° 52% - - 51° 70.8° 57.2° - - -
4/25 3:40pm 262 9 G 16 69° 52% - - 51° 70.8° 57.2° - - -
4/25 3:30pm 252 8 G 13 69° 52% - - 51° 70.8° 57.2° - - -
4/25 3:20pm 243 8 G 15 69° 52% - - 51° 70.8° 57.2° - - -
4/25 3:10pm 236 8 G 15 69° 54% - - 51° 70.8° 57.2° - - -
4/25 3:00pm 246 6 G 13 68° 54% - - 51° 70.8° 57.2° - - -
4/25 2:50pm 259 7 G 12 68° 54% - - 51° 70.8° 57.2° - - -
4/25 2:40pm 243 6 G 11 68° 55% - - 51° 70.8° 57.2° - - -
4/25 2:30pm 237 6 G 11 69° 54% - - 52° 70.8° 57.2° - - -
4/25 2:20pm 249 7 G 12 69° 54% - - 52° 70.8° 57.2° - - -
4/25 2:10pm 241 8 G 14 69° 55% - - 52° 70.8° 57.2° - - -
4/25 2:00pm 256 8 G 15 69° 53% - - 51° 70.8° 57.2° - - -
4/25 1:50pm 243 8 G 15 69° 54% - - 51° 70.8° 57.2° - - -
4/25 1:40pm 266 6 G 15 70° 51% - - 51° 70.8° 57.2° - - -
4/25 1:30pm 273 6 G 12 69° 53% - - 51° 70.7° 57.2° - - -
4/25 1:20pm 246 6 G 14 69° 54% - - 51° 70.7° 57.2° - - -
4/25 1:10pm 250 6 G 14 69° 54% - - 52° 70.7° 57.2° - - -
4/25 1:00pm 256 8 G 13 68° 55% - - 52° 70.7° 57.2° - - -
4/25 12:50pm 263 6 G 13 68° 54% - - 51° 70.7° 57.2° - - -
4/25 12:40pm 284 6 G 11 69° 51% - - 50° 70.7° 57.2° - - -
4/25 12:30pm 286 7 G 13 69° 53% - - 51° 70.7° 57.2° - - -
4/25 12:20pm 244 7 G 14 70° 51% - - 51° 70.7° 57.2° - - -
4/25 12:10pm 273 4 G 8 69° 50% - - 50° 70.2° 57.2° - - -
4/25 12:00pm 239 5 G 10 68° 52% - - 50° 69.5° 57.2° - - -
4/25 11:50am 242 5 G 11 68° 51% - - 50° 69.5° 57.2° - - -
4/25 11:40am 247 5 G 8 67° 53% - - 50° 68.5° 57.2° - - -
4/25 11:30am 232 6 G 11 68° 53% - - 50° 68.5° 57.2° - - -
4/25 11:20am 214 6 G 8 68° 52% - - 50° 68.5° 57.2° - - -
4/25 11:10am 223 6 G 10 67° 55% - - 50° 68.2° 57.2° - - -
4/25 11:00am 206 6 G 9 67° 53% - - 50° 68.2° 57.2° - - -
4/25 10:50am 142 3 G 9 67° 52% - - 49° 68.2° 57.2° - - -
4/25 10:40am 221 3 G 7 66° 54% - - 49° 67.3° 57.2° - - -
4/25 10:30am 263 3 G 6 66° 54% - - 49° 67.3° 57.2° - - -
4/25 10:20am 185 3 G 6 66° 56% - - 49° 66.5° 57.2° - - -
4/25 10:10am 270 4 G 7 65° 58% - - 50° 65.9° 57.2° - - -
4/25 10:00am 244 2 G 4 65° 58% - - 50° 65.7° 57.2° - - -
4/25 9:50am 267 3 G 6 65° 59% - - 50° 65.5° 57.2° - - -
4/25 9:40am 248 4 G 8 64° 63% - - 51° 64.7° 57.2° - - -
4/25 9:30am 275 3 G 7 64° 64% - - 51° 64.7° 57.2° - - -
4/25 9:20am 283 3 G 6 64° 65% - - 52° 64.6° 57.2° - - -
4/25 9:10am 287 3 G 6 63° 66% - - 52° 64° 57.2° - - -
4/25 9:00am 299 4 G 8 62° 69% - - 52° 62.7° 57.2° - - -
4/25 8:50am 293 3 G 8 62° 70% - - 52° 62.5° 57.2° - - -
4/25 8:40am 334 2 G 6 62° 69% - - 52° 62.5° 57.2° - - -
4/25 8:30am 295 3 G 5 61° 71% - - 52° 61.9° 57.2° - - -
4/25 8:20am 250 3 G 5 61° 72% - - 52° 61.6° 57.2° - - -
4/25 8:10am 292 3 G 5 61° 73% - - 52° 61.5° 57.2° - - -
4/25 8:00am 277 1 G 4 61° 73% - - 52° 61.2° 57.2° - - -
4/25 7:50am 276 1 G 3 60° 74% - - 52° 60.7° 57.2° - - -
4/25 7:40am 250 1 G 2 60° 75% - - 52° 60.6° 57.2° - - -
4/25 7:30am 241 0 G 2 59° 76% - - 52° 60.6° 57.2° - - -
4/25 7:20am 235 1 G 3 59° 77% - - 52° 60.6° 57.2° - - -
4/25 7:10am 153 0 G 1 58° 78% - - 51° 60.6° 57.2° - - -
4/25 7:00am 93 1 G 1 58° 79% - - 51° 60.6° 57.2° - - -
4/25 6:50am 100 1 G 2 58° 80% - - 51° 60.6° 57.2° - - -
4/25 6:40am 343 0 G 1 58° 79% - - 51° 60.6° 57.4° - - -
4/25 6:30am 218 1 G 2 58° 78% - - 51° 60.6° 57.5° - - -
4/25 6:20am 179 1 G 2 58° 78% - - 51° 60.6° 57.7° - - -
4/25 6:10am 194 1 G 3 58° 77% - - 51° 60.6° 57.9° - - -
4/25 6:00am 191 2 G 3 59° 76% - - 51° 60.6° 57.9° - - -
4/25 5:50am 180 2 G 3 59° 76% - - 51° 60.6° 57.9° - - -
4/25 5:40am 149 1 G 3 58° 77% - - 51° 60.6° 57.9° - - -
4/25 5:30am 145 1 G 2 58° 77% - - 51° 60.6° 57.9° - - -
4/25 5:20am 168 1 G 3 58° 77% - - 51° 60.6° 58.1° - - -
4/25 5:10am 188 2 G 3 59° 75% - - 51° 60.6° 58.2° - - -
4/25 5:00am 89 2 G 4 59° 74% - - 51° 60.6° 58.6° - - -
4/25 4:50am 89 2 G 4 59° 73% - - 51° 60.6° 58.6° - - -
4/25 4:40am 107 3 G 5 59° 74% - - 51° 60.6° 58.6° - - -
4/25 4:30am 50 1 G 2 59° 73% - - 51° 60.6° 58.7° - - -
4/25 4:20am 10 1 G 2 59° 72% - - 50° 60.6° 58.8° - - -
4/25 4:10am 287 0 G 1 60° 71% - - 50° 60.6° 59.2° - - -
4/25 4:00am 296 1 G 1 60° 71% - - 50° 60.6° 59.2° - - -
4/25 3:50am 255 1 G 3 60° 71% - - 50° 60.6° 59.2° - - -
4/25 3:40am 218 1 G 2 60° 71% - - 50° 60.6° 59.2° - - -
4/25 3:30am 253 2 G 6 60° 72% - - 51° 60.6° 59.2° - - -
4/25 3:20am 254 2 G 5 60° 73% - - 51° 60.6° 59.2° - - -
4/25 3:10am 275 1 G 3 60° 73% - - 51° 60.6° 59.2° - - -
4/25 3:00am 241 1 G 4 60° 73% - - 51° 60.6° 59.2° - - -
4/25 2:50am 247 1 G 2 60° 74% - - 51° 60.6° 59.2° - - -
4/25 2:40am 299 1 G 2 60° 73% - - 51° 60.6° 59.2° - - -
4/25 2:30am 297 1 G 3 60° 73% - - 51° 60.6° 59.2° - - -
4/25 2:20am 350 2 G 3 60° 72% - - 51° 60.6° 59.2° - - -
4/25 2:10am 333 3 G 4 60° 72% - - 50° 60.6° 59.2° - - -
4/25 2:00am 327 2 G 4 60° 72% - - 50° 60.6° 59.2° - - -
4/25 1:50am 304 1 G 3 60° 72% - - 51° 60.6° 59.3° - - -
4/25 1:40am 244 3 G 5 60° 72% - - 51° 60.6° 59.3° - - -
4/25 1:30am 227 2 G 4 60° 71% - - 50° 60.6° 59.3° - - -
4/25 1:20am 197 4 G 6 60° 71% - - 50° 60.6° 59.3° - - -
4/25 1:10am 209 4 G 7 60° 70% - - 50° 60.6° 59.4° - - -
4/25 1:00am 220 2 G 4 60° 71% - - 51° 60.6° 59.4° - - -
4/25 12:50am 240 2 G 5 60° 72% - - 51° 60.4° 59.4° - - -
4/25 12:40am 254 3 G 6 60° 74% - - 51° 60.4° 59.4° - - -
4/25 12:30am 239 3 G 6 60° 75% - - 52° 60.4° 59.4° - - -
4/25 12:20am 280 3 G 6 60° 76% - - 52° 60.4° 59.4° - - -
4/25 12:10am 285 3 G 5 60° 77% - - 53° 60.2° 59.4° - - -
4/25 12:00am 276 2 G 5 60° 78% - - 53° 72.4° 58.4° - - -
4/24 11:50pm 265 2 G 3 60° 78% - - 53° 72.4° 58.4° - - -
4/24 11:40pm 224 3 G 5 60° 74% - - 52° 72.4° 58.4° - - -
4/24 11:30pm 255 3 G 5 60° 72% - - 51° 72.4° 58.4° - - -
4/24 11:20pm 262 3 G 6 60° 72% - - 51° 72.4° 58.4° - - -
4/24 11:10pm 254 2 G 5 60° 72% - - 51° 72.4° 58.4° - - -
4/24 11:00pm 256 3 G 7 60° 74% - - 52° 72.4° 58.4° - - -
4/24 10:50pm 260 3 G 6 60° 75% - - 52° 72.4° 58.4° - - -
4/24 10:40pm 263 3 G 4 60° 76% - - 52° 72.4° 58.4° - - -
4/24 10:30pm 241 1 G 5 60° 77% - - 52° 72.4° 58.4° - - -
4/24 10:20pm 295 1 G 2 60° 77% - - 52° 72.4° 58.4° - - -
4/24 10:10pm 183 1 G 2 60° 77% - - 52° 72.4° 58.4° - - -
4/24 10:00pm 175 1 G 2 60° 77% - - 52° 72.4° 58.4° - - -
4/24 9:50pm 204 1 G 2 60° 77% - - 53° 72.4° 58.4° - - -
4/24 9:40pm 207 1 G 3 60° 75% - - 53° 72.4° 58.4° - - -
4/24 9:30pm 260 1 G 3 61° 74% - - 52° 72.4° 58.4° - - -
4/24 9:20pm 278 2 G 3 61° 73% - - 53° 72.4° 58.4° - - -
4/24 9:10pm 262 2 G 3 61° 72% - - 52° 72.4° 58.4° - - -
4/24 9:00pm 232 2 G 4 62° 70% - - 52° 72.4° 58.4° - - -
4/24 8:50pm 260 1 G 3 62° 70% - - 52° 72.4° 58.4° - - -
4/24 8:40pm 248 1 G 2 61° 70% - - 52° 72.4° 58.4° - - -
4/24 8:30pm 216 3 G 4 62° 70% - - 52° 72.4° 58.4° - - -
4/24 8:20pm 229 2 G 5 62° 70% - - 52° 72.4° 58.4° - - -
4/24 8:10pm 237 3 G 7 62° 71% - - 52° 72.4° 58.4° - - -
4/24 8:00pm 253 4 G 7 62° 71% - - 52° 72.4° 58.4° - - -
4/24 7:50pm 249 4 G 8 62° 71% - - 53° 72.4° 58.4° - - -
4/24 7:40pm 257 3 G 6 62° 70% - - 52° 72.4° 58.4° - - -
4/24 7:30pm 246 5 G 8 62° 70% - - 53° 72.4° 58.4° - - -
4/24 7:20pm 245 6 G 10 63° 71% - - 53° 72.4° 58.4° - - -
4/24 7:10pm 253 5 G 8 63° 70% - - 53° 72.4° 58.4° - - -
4/24 7:00pm 258 5 G 9 63° 70% - - 53° 72.4° 58.4° - - -
4/24 6:50pm 259 6 G 10 63° 70% - - 53° 72.4° 58.4° - - -
4/24 6:40pm 262 6 G 10 63° 70% - - 53° 72.4° 58.4° - - -
4/24 6:30pm 263 7 G 11 63° 69% - - 53° 72.4° 58.4° - - -
4/24 6:20pm 271 7 G 12 64° 69% - - 53° 72.4° 58.4° - - -
4/24 6:10pm 274 8 G 13 64° 68% - - 54° 72.4° 58.4° - - -
4/24 6:00pm 273 8 G 14 64° 68% - - 54° 72.4° 58.4° - - -